createdAt,value
2022-08-26T00:00:21.350Z,8.18
2022-08-26T00:02:49.336Z,6.68
2022-08-26T00:05:17.611Z,6.28
2022-08-26T00:07:45.960Z,7.57
2022-08-26T00:10:14.352Z,8.40
2022-08-26T00:12:42.721Z,6.68
2022-08-26T00:15:15.171Z,9.05
2022-08-26T00:17:44.548Z,9.10
2022-08-26T00:20:17.607Z,7.57
2022-08-26T00:22:45.729Z,7.85
2022-08-26T00:25:14.239Z,7.57
2022-08-26T00:27:45.326Z,8.02
2022-08-26T00:30:22.826Z,10.23
2022-08-26T00:32:54.714Z,8.10
2022-08-26T00:35:23.348Z,8.85
2022-08-26T00:37:52.140Z,10.60
2022-08-26T00:40:29.412Z,9.55
2022-08-26T00:42:57.797Z,10.43
2022-08-26T00:45:26.174Z,10.18
2022-08-26T00:48:02.531Z,9.77
2022-08-26T00:50:50.078Z,7.90
2022-08-26T00:53:23.979Z,7.78
2022-08-26T00:56:00.786Z,9.00
2022-08-26T00:58:35.026Z,6.70
2022-08-26T01:01:03.294Z,7.95
2022-08-26T01:03:35.587Z,7.63
2022-08-26T01:06:05.207Z,8.30
2022-08-26T01:08:41.250Z,8.40
2022-08-26T01:11:10.628Z,8.27
2022-08-26T01:13:40.592Z,10.43
2022-08-26T01:16:15.059Z,10.15
2022-08-26T01:18:46.721Z,11.35
2022-08-26T01:21:27.160Z,12.88
2022-08-26T01:23:57.999Z,10.02
2022-08-26T01:26:33.271Z,10.70
2022-08-26T01:29:06.241Z,11.30
2022-08-26T01:31:41.674Z,11.57
2022-08-26T01:34:18.305Z,11.35
2022-08-26T01:36:51.577Z,8.98
2022-08-26T01:39:21.846Z,12.88
2022-08-26T01:41:54.594Z,11.27
2022-08-26T01:44:29.250Z,11.07
2022-08-26T01:47:00.450Z,10.02
2022-08-26T01:49:31.973Z,10.02
2022-08-26T01:52:06.237Z,10.05
2022-08-26T01:54:36.455Z,10.82
2022-08-26T01:57:05.625Z,11.93
2022-08-26T01:59:34.809Z,12.32
2022-08-26T02:02:03.829Z,10.00
2022-08-26T02:04:36.113Z,11.57
2022-08-26T02:07:05.640Z,11.70
2022-08-26T02:09:38.449Z,11.77
2022-08-26T02:12:13.061Z,11.98
2022-08-26T02:14:50.095Z,11.50
2022-08-26T02:17:23.979Z,9.82
2022-08-26T02:19:52.592Z,10.23
2022-08-26T02:22:24.962Z,11.02
2022-08-26T02:24:57.500Z,10.00
2022-08-26T02:27:32.343Z,8.32
2022-08-26T02:30:10.483Z,9.07
2022-08-26T02:32:40.102Z,10.25
2022-08-26T02:35:12.312Z,10.38
2022-08-26T02:37:41.822Z,11.43
2022-08-26T02:40:14.668Z,14.90
2022-08-26T02:42:42.762Z,13.23
2022-08-26T02:45:12.828Z,12.80
2022-08-26T02:47:40.981Z,9.90
2022-08-26T02:50:09.327Z,8.95
2022-08-26T02:52:38.388Z,9.57
2022-08-26T02:55:08.527Z,9.77
2022-08-26T02:57:38.034Z,11.00
2022-08-26T03:00:10.676Z,14.20
2022-08-26T03:02:38.833Z,10.38
2022-08-26T03:05:08.188Z,15.23
2022-08-26T03:07:36.158Z,14.13
2022-08-26T03:10:08.223Z,12.48
2022-08-26T03:12:38.145Z,11.90
2022-08-26T03:15:17.915Z,11.40
2022-08-26T03:17:49.049Z,12.05
2022-08-26T03:20:19.568Z,13.93
2022-08-26T03:22:48.062Z,10.98
2022-08-26T03:25:18.225Z,14.02
2022-08-26T03:27:48.165Z,10.23
2022-08-26T03:30:35.900Z,13.48
2022-08-26T03:33:04.833Z,12.25
2022-08-26T03:35:33.992Z,11.00
2022-08-26T03:38:03.236Z,12.18
2022-08-26T03:40:33.615Z,9.73
2022-08-26T03:43:03.571Z,10.82
2022-08-26T03:45:32.142Z,14.90
2022-08-26T03:48:01.535Z,11.90
2022-08-26T03:50:31.013Z,14.73
2022-08-26T03:53:03.612Z,13.07
2022-08-26T03:55:33.591Z,13.75
2022-08-26T03:58:03.287Z,12.82
2022-08-26T04:00:32.070Z,14.45
2022-08-26T04:03:02.530Z,14.23
2022-08-26T04:05:30.671Z,11.55
2022-08-26T04:07:59.121Z,11.20
2022-08-26T04:10:29.170Z,32.00
2022-08-26T04:12:59.321Z,16.55
2022-08-26T04:15:29.343Z,13.70
2022-08-26T04:17:57.737Z,13.65
2022-08-26T04:20:26.312Z,17.60
2022-08-26T04:22:54.662Z,15.20
2022-08-26T04:25:22.736Z,21.02
2022-08-26T04:27:52.618Z,14.88
2022-08-26T04:30:21.196Z,18.63
2022-08-26T04:32:50.876Z,19.20
2022-08-26T04:35:25.419Z,20.30
2022-08-26T04:37:55.303Z,21.45
2022-08-26T04:40:23.489Z,23.23
2022-08-26T04:42:51.460Z,19.52
2022-08-26T04:45:22.589Z,19.85
2022-08-26T04:47:56.169Z,20.70
2022-08-26T04:50:25.630Z,26.15
2022-08-26T04:52:55.191Z,22.63
2022-08-26T04:55:38.156Z,27.00
2022-08-26T04:58:08.620Z,25.67
2022-08-26T05:00:39.407Z,27.27
2022-08-26T05:03:10.487Z,28.30
2022-08-26T05:05:41.308Z,28.17
2022-08-26T05:08:11.367Z,32.50
2022-08-26T05:10:44.327Z,29.60
2022-08-26T05:13:15.567Z,30.35
2022-08-26T05:15:45.151Z,34.53
2022-08-26T05:18:17.609Z,33.33
2022-08-26T05:20:51.063Z,36.45
2022-08-26T05:23:22.606Z,38.75
2022-08-26T05:25:57.060Z,39.75
2022-08-26T05:28:29.266Z,40.72
2022-08-26T05:30:57.806Z,42.15
2022-08-26T05:33:27.361Z,49.75
2022-08-26T05:35:55.438Z,42.25
2022-08-26T05:38:23.651Z,63.92
2022-08-26T05:40:53.306Z,49.10
2022-08-26T05:43:21.907Z,53.20
2022-08-26T05:45:51.439Z,56.15
2022-08-26T05:48:22.820Z,46.17
2022-08-26T05:50:54.891Z,49.60
2022-08-26T05:53:26.034Z,48.58
2022-08-26T05:55:56.240Z,47.35
2022-08-26T05:58:27.256Z,52.28
2022-08-26T06:01:02.848Z,51.28
2022-08-26T06:03:33.827Z,49.60
2022-08-26T06:06:07.811Z,54.08
2022-08-26T06:08:37.344Z,49.55
2022-08-26T06:11:08.605Z,51.08
2022-08-26T06:13:47.758Z,57.72
2022-08-26T06:16:20.240Z,48.10
2022-08-26T06:18:50.617Z,47.60
2022-08-26T06:21:23.556Z,48.42
2022-08-26T06:24:12.021Z,50.05
2022-08-26T06:26:42.737Z,46.75
2022-08-26T06:29:11.213Z,41.03
2022-08-26T06:31:43.793Z,48.15
2022-08-26T06:34:11.861Z,43.08
2022-08-26T06:36:44.654Z,42.20
2022-08-26T06:39:16.148Z,45.67
2022-08-26T06:41:45.665Z,48.35
2022-08-26T06:44:16.294Z,43.85
2022-08-26T06:46:45.606Z,43.13
2022-08-26T06:49:13.821Z,46.75
2022-08-26T06:51:46.818Z,41.55
2022-08-26T06:54:16.905Z,44.30
2022-08-26T06:56:45.291Z,41.28
2022-08-26T06:59:15.994Z,47.67
2022-08-26T07:01:45.516Z,47.72
2022-08-26T07:04:20.287Z,44.05
2022-08-26T07:06:53.905Z,46.53
2022-08-26T07:09:25.154Z,41.20
2022-08-26T07:11:56.018Z,38.88
2022-08-26T07:14:25.187Z,37.45
2022-08-26T07:16:55.021Z,46.05
2022-08-26T07:19:30.368Z,42.30
2022-08-26T07:22:03.632Z,42.67
2022-08-26T07:24:36.142Z,40.38
2022-08-26T07:27:09.436Z,36.13
2022-08-26T07:29:40.328Z,48.35
2022-08-26T07:32:09.985Z,38.60
2022-08-26T07:34:39.372Z,40.33
2022-08-26T07:37:11.394Z,41.55
2022-08-26T07:39:41.536Z,35.20
2022-08-26T07:42:14.686Z,37.05
2022-08-26T07:44:44.769Z,42.42
2022-08-26T07:47:25.663Z,35.20
2022-08-26T07:49:57.267Z,32.40
2022-08-26T07:52:30.139Z,39.17
2022-08-26T07:55:01.648Z,33.47
2022-08-26T07:57:31.306Z,35.55
2022-08-26T08:00:00.399Z,34.15
2022-08-26T08:02:30.612Z,42.38
2022-08-26T08:04:59.749Z,34.90
2022-08-26T08:07:44.310Z,33.55
2022-08-26T08:10:16.980Z,34.90
2022-08-26T08:12:45.887Z,37.63
2022-08-26T08:15:15.382Z,30.85
2022-08-26T08:17:44.936Z,33.83
2022-08-26T08:20:15.663Z,29.38
2022-08-26T08:22:45.136Z,31.80
2022-08-26T08:25:15.805Z,32.53
2022-08-26T08:27:46.275Z,31.25
2022-08-26T08:30:22.855Z,34.95
2022-08-26T08:32:52.235Z,34.03
2022-08-26T08:35:22.407Z,28.92
2022-08-26T08:37:54.645Z,31.13
2022-08-26T08:40:26.787Z,29.58
2022-08-26T08:43:03.598Z,27.25
2022-08-26T08:45:37.900Z,28.30
2022-08-26T08:48:13.641Z,27.75
2022-08-26T08:50:47.045Z,30.02
2022-08-26T08:53:22.566Z,35.13
2022-08-26T08:56:04.923Z,32.83
2022-08-26T08:58:52.700Z,27.05
2022-08-26T09:01:43.317Z,27.63
2022-08-26T09:04:32.243Z,30.40
2022-08-26T09:07:03.722Z,31.20
2022-08-26T09:09:41.472Z,28.58
2022-08-26T09:12:18.963Z,25.50
2022-08-26T09:14:51.093Z,33.95
2022-08-26T09:17:34.521Z,26.90
2022-08-26T09:20:15.241Z,30.40
2022-08-26T09:22:44.284Z,28.75
2022-08-26T09:25:16.823Z,28.23
2022-08-26T09:27:51.524Z,28.42
2022-08-26T09:30:31.298Z,29.25
2022-08-26T09:33:03.079Z,26.67
2022-08-26T09:35:41.554Z,29.65
2022-08-26T09:38:25.756Z,31.67
2022-08-26T09:41:02.313Z,32.95
2022-08-26T09:43:33.721Z,27.42
2022-08-26T09:46:18.595Z,27.50
2022-08-26T09:48:46.753Z,27.27
2022-08-26T09:51:32.921Z,28.42
2022-08-26T09:54:03.849Z,31.17
2022-08-26T09:56:38.347Z,24.30
2022-08-26T09:59:12.108Z,25.63
2022-08-26T10:01:43.632Z,29.13
2022-08-26T10:04:22.835Z,26.25
2022-08-26T10:06:59.065Z,25.27
2022-08-26T10:09:31.010Z,25.00
2022-08-26T10:12:05.498Z,23.80
2022-08-26T10:17:22.522Z,32.08
2022-08-26T10:19:58.035Z,25.20
2022-08-26T10:22:37.658Z,25.77
2022-08-26T10:25:13.988Z,23.00
2022-08-26T10:27:53.769Z,27.48
2022-08-26T10:30:28.531Z,23.80
2022-08-26T10:33:03.083Z,22.80
2022-08-26T10:35:35.230Z,27.00
2022-08-26T10:38:10.128Z,28.30
2022-08-26T10:40:51.973Z,25.63
2022-08-26T10:43:27.760Z,30.42
2022-08-26T10:46:03.919Z,23.48
2022-08-26T10:48:43.706Z,27.75
2022-08-26T10:51:14.277Z,30.15
2022-08-26T10:53:52.727Z,27.05
2022-08-26T10:56:39.286Z,29.25
2022-08-26T10:59:22.428Z,27.83
2022-08-26T11:02:03.854Z,29.42
2022-08-26T11:04:48.493Z,25.70
2022-08-26T11:07:41.986Z,29.58
2022-08-26T11:10:54.599Z,31.20
2022-08-26T11:14:04.906Z,22.80
2022-08-26T11:16:42.800Z,24.98
2022-08-26T11:19:58.857Z,21.00
2022-08-26T11:22:30.985Z,24.25
2022-08-26T11:25:12.919Z,24.83
2022-08-26T11:28:06.204Z,22.95
2022-08-26T11:30:57.751Z,21.83
2022-08-26T11:33:50.994Z,20.35
2022-08-26T11:36:43.709Z,20.45
2022-08-26T11:39:21.736Z,24.15
2022-08-26T11:41:53.434Z,21.25
2022-08-26T11:44:25.988Z,18.33
2022-08-26T11:46:59.371Z,18.73
2022-08-26T11:49:31.459Z,15.55
2022-08-26T11:52:14.667Z,23.27
2022-08-26T11:57:18.971Z,18.42
2022-08-26T11:59:51.131Z,17.50
2022-08-26T12:02:19.600Z,18.45
2022-08-26T12:04:54.844Z,18.40
2022-08-26T12:07:27.990Z,19.10
2022-08-26T12:10:02.148Z,18.20
2022-08-26T12:12:35.185Z,17.75
2022-08-26T12:15:22.647Z,17.35
2022-08-26T12:17:54.640Z,17.67
2022-08-26T12:20:48.091Z,19.67
2022-08-26T12:23:25.305Z,19.60
2022-08-26T12:26:08.975Z,18.77
2022-08-26T12:28:47.797Z,16.67
2022-08-26T12:31:25.732Z,14.02
2022-08-26T12:33:56.819Z,17.30
2022-08-26T12:36:32.370Z,12.95
2022-08-26T12:39:10.874Z,15.55
2022-08-26T12:41:45.354Z,15.10
2022-08-26T12:44:37.949Z,13.27
2022-08-26T12:47:11.078Z,11.63
2022-08-26T12:49:42.277Z,10.68
2022-08-26T12:52:30.746Z,13.65
2022-08-26T12:55:02.941Z,20.52
2022-08-26T12:57:36.042Z,22.73
2022-08-26T13:00:34.512Z,13.90
2022-08-26T13:03:03.927Z,12.32
2022-08-26T13:05:35.735Z,19.00
2022-08-26T13:08:17.007Z,15.45
2022-08-26T13:10:48.753Z,17.95
2022-08-26T13:13:16.893Z,8.98
2022-08-26T13:15:45.316Z,13.35
2022-08-26T13:18:15.764Z,13.27
2022-08-26T13:20:45.162Z,10.15
2022-08-26T13:23:16.036Z,7.95
2022-08-26T13:25:44.955Z,8.15
2022-08-26T13:28:15.218Z,8.18
2022-08-26T13:30:48.212Z,13.05
2022-08-26T13:33:16.690Z,11.07
2022-08-26T13:35:48.450Z,8.07
2022-08-26T13:38:18.562Z,13.05
2022-08-26T13:41:02.615Z,8.05
2022-08-26T13:43:31.900Z,10.55
2022-08-26T13:46:01.682Z,8.13
2022-08-26T13:48:30.224Z,7.97
2022-08-26T13:50:59.432Z,11.07
2022-08-26T13:53:31.162Z,9.02
2022-08-26T13:56:02.042Z,7.82
2022-08-26T13:58:30.514Z,10.18
2022-08-26T14:00:59.229Z,10.18
2022-08-26T14:03:27.945Z,7.55
2022-08-26T14:05:56.483Z,11.30
2022-08-26T14:08:24.747Z,9.18
2022-08-26T14:11:36.991Z,4.70
2022-08-26T14:14:28.708Z,7.20
2022-08-26T14:17:00.423Z,13.50
2022-08-26T14:19:31.130Z,11.23
2022-08-26T14:22:03.032Z,9.43
2022-08-26T14:24:31.365Z,9.60
2022-08-26T14:26:59.620Z,9.18
2022-08-26T14:29:29.133Z,8.15
2022-08-26T14:31:59.609Z,11.63
2022-08-26T14:34:27.987Z,11.65
2022-08-26T14:36:59.202Z,11.00
2022-08-26T14:39:37.083Z,7.03
2022-08-26T14:42:06.017Z,5.65
2022-08-26T14:44:36.002Z,7.47
2022-08-26T14:47:07.038Z,8.88
2022-08-26T14:49:35.189Z,9.73
2022-08-26T14:52:03.990Z,8.00
2022-08-26T14:54:32.420Z,8.20
2022-08-26T14:57:04.888Z,8.65
2022-08-26T14:59:37.858Z,6.55
2022-08-26T15:02:10.489Z,7.30
2022-08-26T15:04:42.687Z,6.65
2022-08-26T15:07:12.664Z,11.55
2022-08-26T15:09:42.042Z,8.65
2022-08-26T15:12:10.230Z,5.50
2022-08-26T15:14:39.875Z,6.07
2022-08-26T15:17:08.469Z,8.20
2022-08-26T15:19:36.511Z,4.32
2022-08-26T15:22:04.547Z,6.43
2022-08-26T15:24:32.950Z,6.53
2022-08-26T15:27:01.078Z,7.65
2022-08-26T15:29:29.127Z,7.25
2022-08-26T15:31:58.489Z,5.85
2022-08-26T15:34:26.850Z,7.35
2022-08-26T15:36:55.487Z,6.88
2022-08-26T15:39:25.740Z,5.53
2022-08-26T15:41:56.865Z,5.07
2022-08-26T15:44:27.040Z,4.25
2022-08-26T15:46:58.598Z,7.57
2022-08-26T15:49:28.451Z,6.03
2022-08-26T15:51:56.876Z,11.13
2022-08-26T15:54:25.412Z,4.93
2022-08-26T15:56:57.492Z,4.28
2022-08-26T15:59:26.582Z,3.20
2022-08-26T16:01:55.582Z,7.88
2022-08-26T16:04:23.732Z,9.27
2022-08-26T16:06:53.838Z,5.80
2022-08-26T16:09:26.795Z,2.85
2022-08-26T16:11:55.780Z,5.63
2022-08-26T16:14:24.926Z,7.00
2022-08-26T16:16:54.756Z,9.95
2022-08-26T16:19:23.376Z,6.88
2022-08-26T16:21:53.174Z,11.93
2022-08-26T16:24:24.884Z,5.93
2022-08-26T16:26:55.680Z,8.35
2022-08-26T16:29:24.468Z,6.25
2022-08-26T16:31:53.716Z,12.10
2022-08-26T16:34:22.372Z,7.65
2022-08-26T16:36:51.956Z,7.50
2022-08-26T16:39:20.161Z,5.45
2022-08-26T16:41:48.268Z,27.10
2022-08-26T16:44:16.588Z,9.45
2022-08-26T16:46:48.021Z,5.57
2022-08-26T16:49:16.561Z,8.57
2022-08-26T16:51:45.030Z,7.32
2022-08-26T16:54:14.650Z,7.60
2022-08-26T16:56:42.827Z,7.43
2022-08-26T16:59:12.007Z,5.32
2022-08-26T17:01:41.007Z,9.93
2022-08-26T17:04:09.230Z,6.70
2022-08-26T17:06:38.171Z,3.90
2022-08-26T17:09:06.618Z,4.97
2022-08-26T17:11:36.285Z,4.63
2022-08-26T17:14:04.927Z,6.00
2022-08-26T17:16:33.565Z,9.55
2022-08-26T17:19:01.836Z,5.78
2022-08-26T17:21:30.568Z,7.28
2022-08-26T17:23:59.207Z,9.60
2022-08-26T17:26:27.436Z,8.93
2022-08-26T17:28:57.259Z,4.47
2022-08-26T17:31:26.381Z,3.78
2022-08-26T17:33:55.372Z,4.70
2022-08-26T17:36:27.917Z,4.70
2022-08-26T17:38:58.129Z,7.03
2022-08-26T17:41:28.673Z,2.45
2022-08-26T17:43:59.430Z,3.30
2022-08-26T17:46:27.959Z,3.92
2022-08-26T17:48:57.055Z,4.63
2022-08-26T17:51:25.558Z,4.53
2022-08-26T17:53:53.780Z,4.13
2022-08-26T17:56:26.237Z,3.65
2022-08-26T17:59:02.371Z,5.65
2022-08-26T18:01:32.585Z,4.15
2022-08-26T18:04:01.143Z,12.25
2022-08-26T18:06:31.130Z,6.75
2022-08-26T18:09:00.528Z,4.68
2022-08-26T18:11:30.006Z,4.47
2022-08-26T18:14:00.386Z,4.97
2022-08-26T18:16:29.275Z,5.85
2022-08-26T18:18:58.328Z,3.25
2022-08-26T18:21:28.914Z,3.03
2022-08-26T18:23:57.561Z,3.67
2022-08-26T18:26:30.263Z,7.45
2022-08-26T18:29:00.898Z,3.38
2022-08-26T18:31:29.857Z,4.45
2022-08-26T18:34:00.171Z,6.72
2022-08-26T18:36:31.338Z,3.63
2022-08-26T18:39:00.427Z,4.38
2022-08-26T18:41:31.899Z,8.90
2022-08-26T18:44:01.679Z,5.10
2022-08-26T18:46:29.943Z,4.85
2022-08-26T18:49:01.217Z,5.50
2022-08-26T18:51:33.239Z,7.20
2022-08-26T18:54:05.340Z,7.38
2022-08-26T18:56:35.061Z,3.72
2022-08-26T18:59:09.089Z,4.95
2022-08-26T19:01:42.213Z,4.43
2022-08-26T19:04:15.573Z,3.53
2022-08-26T19:06:48.763Z,4.40
2022-08-26T19:09:17.856Z,4.97
2022-08-26T19:11:47.321Z,3.65
2022-08-26T19:14:19.877Z,4.43
2022-08-26T19:16:52.303Z,10.43
2022-08-26T19:19:23.779Z,6.65
2022-08-26T19:21:52.754Z,6.03
2022-08-26T19:24:28.099Z,4.78
2022-08-26T19:26:59.444Z,4.63
2022-08-26T19:29:35.230Z,6.07
2022-08-26T19:32:07.385Z,13.48
2022-08-26T19:34:36.330Z,7.88
2022-08-26T19:37:04.587Z,3.47
2022-08-26T19:39:32.697Z,3.08
2022-08-26T19:42:04.038Z,3.45
2022-08-26T19:44:51.197Z,7.25
2022-08-26T19:47:19.335Z,3.00
2022-08-26T19:49:47.428Z,7.20
2022-08-26T19:53:04.046Z,5.85
2022-08-26T19:55:33.039Z,6.53
2022-08-26T19:58:01.292Z,7.00
2022-08-26T20:00:39.645Z,4.25
2022-08-26T20:03:08.563Z,7.53
2022-08-26T20:05:41.378Z,5.30
2022-08-26T20:08:09.680Z,13.75
2022-08-26T20:10:50.740Z,8.32
2022-08-26T20:13:18.944Z,6.30
2022-08-26T20:15:48.481Z,7.10
2022-08-26T20:18:30.434Z,3.25
2022-08-26T20:21:16.381Z,6.35
2022-08-26T20:23:45.777Z,8.02
2022-08-26T20:26:14.295Z,7.43
2022-08-26T20:28:43.360Z,4.40
2022-08-26T20:31:13.232Z,3.40
2022-08-26T20:33:46.439Z,4.45
2022-08-26T20:36:15.921Z,8.90
2022-08-26T20:38:45.154Z,5.45
2022-08-26T20:41:13.467Z,3.70
2022-08-26T20:43:48.878Z,3.40
2022-08-26T20:46:24.659Z,5.10
2022-08-26T20:49:09.338Z,4.78
2022-08-26T20:51:38.410Z,5.85
2022-08-26T20:54:07.422Z,6.57
2022-08-26T20:56:37.835Z,5.32
2022-08-26T20:59:16.716Z,5.60
2022-08-26T21:01:53.108Z,5.13
2022-08-26T21:04:29.416Z,5.85
2022-08-26T21:06:58.244Z,7.47
2022-08-26T21:09:27.308Z,7.70
2022-08-26T21:11:56.896Z,4.75
2022-08-26T21:14:28.089Z,5.75
2022-08-26T21:16:57.535Z,6.35
2022-08-26T21:19:25.667Z,3.03
2022-08-26T21:21:53.749Z,5.85
2022-08-26T21:24:22.275Z,5.03
2022-08-26T21:26:50.482Z,4.82
2022-08-26T21:29:18.569Z,5.18
2022-08-26T21:31:47.074Z,4.50
2022-08-26T21:34:19.052Z,6.22
2022-08-26T21:36:48.685Z,7.97
2022-08-26T21:39:19.209Z,3.50
2022-08-26T21:41:48.159Z,4.78
2022-08-26T21:44:19.010Z,4.93
2022-08-26T21:46:49.766Z,5.35
2022-08-26T21:49:19.506Z,3.03
2022-08-26T21:51:49.674Z,2.28
2022-08-26T21:54:19.025Z,2.47
2022-08-26T21:56:48.570Z,4.25
2022-08-26T21:59:19.332Z,4.95
2022-08-26T22:01:48.274Z,3.45
2022-08-26T22:04:18.435Z,1.77
2022-08-26T22:06:50.008Z,2.55
2022-08-26T22:09:21.592Z,3.28
2022-08-26T22:11:50.651Z,4.28
2022-08-26T22:14:21.852Z,4.55
2022-08-26T22:16:50.977Z,2.45
2022-08-26T22:19:21.196Z,2.00
2022-08-26T22:21:54.769Z,2.90
2022-08-26T22:24:27.027Z,1.73
2022-08-26T22:26:56.636Z,2.78
2022-08-26T22:29:25.567Z,2.67
2022-08-26T22:31:54.658Z,3.92
2022-08-26T22:34:25.121Z,2.42
2022-08-26T22:36:54.004Z,2.78
2022-08-26T22:39:25.859Z,2.70
2022-08-26T22:41:56.724Z,4.20
2022-08-26T22:44:25.316Z,2.30
2022-08-26T22:46:55.400Z,3.53
2022-08-26T22:49:25.370Z,4.10
2022-08-26T22:51:53.341Z,5.90
2022-08-26T22:54:21.717Z,3.88
2022-08-26T22:56:49.721Z,4.15
2022-08-26T22:59:17.919Z,3.70
2022-08-26T23:01:47.322Z,4.55
2022-08-26T23:04:15.667Z,4.03
2022-08-26T23:06:47.529Z,5.13
2022-08-26T23:09:17.974Z,4.68
2022-08-26T23:11:48.262Z,4.95
2022-08-26T23:14:18.342Z,4.85
2022-08-26T23:16:47.740Z,5.68
2022-08-26T23:19:18.596Z,6.05
2022-08-26T23:21:48.889Z,5.43
2022-08-26T23:24:27.154Z,7.18
2022-08-26T23:26:55.282Z,3.03
2022-08-26T23:29:26.354Z,6.70
2022-08-26T23:31:56.333Z,5.78
2022-08-26T23:38:20.537Z,6.03
2022-08-26T23:40:48.851Z,7.15
2022-08-26T23:43:17.604Z,5.07
2022-08-26T23:45:45.746Z,3.50
2022-08-26T23:48:13.882Z,4.20
2022-08-26T23:51:03.826Z,5.78
2022-08-26T23:53:34.045Z,5.05
2022-08-26T23:56:02.129Z,7.70
2022-08-26T23:58:30.204Z,7.50
